Time;durP1;ratioP1;P1;durP2;ratioP2;P2;SDS_P1;SDS_P2;PMS_P1;PMS_P2;Temp;Humidity;BMP_temperature;BMP_pressure;BME280_temperature;BME280_humidity;BME280_pressure;Samples;Min_cycle;Max_cycle;Signal;HPM_P1;HPM_P2
2023/12/08 00:01:01;;;;;;;;;;;1.50;99.90;;;;;;5107700;27;19923;-74
2023/12/08 00:03:27;;;;;;;;;;;1.50;99.90;;;;;;5094634;28;19924;-75
2023/12/08 00:05:52;;;;;;;;;;;1.50;99.90;;;;;;5101039;28;20029;-75
2023/12/08 00:08:18;;;;;;;;;;;1.50;99.90;;;;;;5109267;28;19924;-75
2023/12/08 00:10:43;;;;;;;;;;;1.50;99.90;;;;;;5109425;27;20437;-75
2023/12/08 00:13:09;;;;;;;;;;;1.50;99.90;;;;;;5124199;27;19923;-75
2023/12/08 00:15:34;;;;;;;;;;;1.50;99.90;;;;;;5117980;27;19927;-76
2023/12/08 00:18:00;;;;;;;;;;;1.50;99.90;;;;;;5131369;27;19924;-75
2023/12/08 00:20:25;;;;;;;;;;;1.60;99.90;;;;;;5127087;27;19923;-76
2023/12/08 00:22:51;;;;;;;;;;;1.50;99.90;;;;;;5103136;28;19924;-75
2023/12/08 00:25:17;;;;;;;;;;;1.50;99.90;;;;;;5102506;27;19923;-75
2023/12/08 00:27:42;;;;;;;;;;;1.50;99.90;;;;;;5098602;28;19949;-75
2023/12/08 00:30:08;;;;;;;;;;;1.80;99.90;;;;;;5095286;27;19924;-75
2023/12/08 00:32:34;;;;;;;;;;;1.50;99.90;;;;;;5109598;27;19924;-76
2023/12/08 00:34:59;;;;;;;;;;;1.50;99.90;;;;;;5103304;28;20023;-76
2023/12/08 00:37:25;;;;;;;;;;;1.70;99.90;;;;;;5108170;28;20375;-76
2023/12/08 00:39:50;;;;;;;;;;;1.50;99.90;;;;;;5106373;28;20442;-76
2023/12/08 00:42:16;;;;;;;;;;;1.50;99.90;;;;;;5107043;27;19944;-75
2023/12/08 00:44:41;;;;;;;;;;;1.50;99.90;;;;;;5109230;27;20434;-75
2023/12/08 00:47:07;;;;;;;;;;;2.00;99.90;;;;;;5091140;28;20355;-75
2023/12/08 00:49:33;;;;;;;;;;;1.50;99.90;;;;;;5094375;28;19946;-75
2023/12/08 00:51:58;;;;;;;;;;;2.00;99.90;;;;;;5091449;28;19928;-75
2023/12/08 00:54:24;;;;;;;;;;;1.80;99.90;;;;;;5096321;27;19931;-75
2023/12/08 00:56:49;;;;;;;;;;;1.60;99.90;;;;;;5099142;27;20015;-75
2023/12/08 00:59:15;;;;;;;;;;;1.50;99.90;;;;;;5123461;27;19931;-74
2023/12/08 01:01:40;;;;;;;;;;;1.80;99.90;;;;;;5095841;28;19939;-75
2023/12/08 01:04:06;;;;;;;;;;;1.50;99.90;;;;;;5128860;27;19923;-75
2023/12/08 01:06:31;;;;;;;;;;;1.50;99.90;;;;;;5092062;28;19924;-74
2023/12/08 01:08:57;;;;;;;;;;;1.40;99.90;;;;;;5093046;27;19982;-74
2023/12/08 01:11:22;;;;;;;;;;;1.50;99.90;;;;;;5111714;27;19923;-74
2023/12/08 01:13:48;;;;;;;;;;;1.50;99.90;;;;;;5104624;28;20057;-74
2023/12/08 01:16:13;;;;;;;;;;;1.70;99.90;;;;;;5119290;27;20014;-73
2023/12/08 01:18:39;;;;;;;;;;;1.40;99.90;;;;;;5118573;27;19956;-75
2023/12/08 01:21:04;;;;;;;;;;;1.90;99.90;;;;;;5105584;28;20049;-75
2023/12/08 01:23:30;;;;;;;;;;;1.40;99.90;;;;;;5091254;28;20306;-75
2023/12/08 01:25:56;;;;;;;;;;;1.40;99.90;;;;;;5100645;27;20271;-75
2023/12/08 01:28:21;;;;;;;;;;;1.40;99.90;;;;;;5109729;27;19926;-74
2023/12/08 01:30:47;;;;;;;;;;;1.40;99.90;;;;;;5109734;27;19927;-74
2023/12/08 01:33:12;;;;;;;;;;;1.40;99.90;;;;;;5130297;27;20408;-75
2023/12/08 01:35:38;;;;;;;;;;;1.40;99.90;;;;;;5110164;28;20045;-75
2023/12/08 01:38:04;;;;;;;;;;;1.40;99.90;;;;;;5109353;28;20198;-75
2023/12/08 01:40:29;;;;;;;;;;;1.40;99.90;;;;;;5095432;28;20290;-75
2023/12/08 01:42:55;;;;;;;;;;;1.40;99.90;;;;;;5110187;28;19933;-75
2023/12/08 01:45:20;;;;;;;;;;;1.40;99.90;;;;;;5127811;28;19927;-76
2023/12/08 01:47:46;;;;;;;;;;;1.40;99.90;;;;;;5129949;28;19924;-76
2023/12/08 01:50:12;;;;;;;;;;;1.80;99.90;;;;;;5120908;28;19931;-75
2023/12/08 01:52:38;;;;;;;;;;;1.40;99.90;;;;;;5099669;28;19924;-75
2023/12/08 01:55:04;;;;;;;;;;;1.40;99.90;;;;;;5103809;28;20010;-74
2023/12/08 01:57:31;;;;;;;;;;;1.40;99.90;;;;;;5102201;28;19935;-75
2023/12/08 01:59:57;;;;;;;;;;;1.40;99.90;;;;;;5107168;28;20479;-76
2023/12/08 02:02:23;;;;;;;;;;;1.40;99.90;;;;;;5122889;28;19964;-76
2023/12/08 02:04:49;;;;;;;;;;;1.40;99.90;;;;;;5128628;28;20383;-75
2023/12/08 02:07:15;;;;;;;;;;;2.10;99.90;;;;;;5128296;28;20015;-75
2023/12/08 02:09:41;;;;;;;;;;;1.40;99.90;;;;;;5125754;28;20047;-75
2023/12/08 02:12:07;;;;;;;;;;;1.70;99.90;;;;;;5103240;28;19934;-76
2023/12/08 02:14:32;;;;;;;;;;;1.30;99.90;;;;;;5115520;28;19919;-76
2023/12/08 02:17:11;;;;;;;;;;;1.40;99.90;;;;;;5123598;27;19927;-75
2023/12/08 02:19:37;;;;;;;;;;;1.40;99.90;;;;;;5121457;28;19924;-76
2023/12/08 02:22:04;;;;;;;;;;;1.40;99.90;;;;;;5108192;28;20002;-76
2023/12/08 02:24:29;;;;;;;;;;;1.50;99.90;;;;;;5120164;28;19930;-76
2023/12/08 02:26:55;;;;;;;;;;;1.70;99.90;;;;;;5099906;28;20293;-76
2023/12/08 02:29:21;;;;;;;;;;;2.00;99.90;;;;;;5108327;28;19928;-77
2023/12/08 02:32:01;;;;;;;;;;;1.50;99.90;;;;;;5099657;28;20310;-76
2023/12/08 02:34:28;;;;;;;;;;;1.40;99.90;;;;;;5093270;28;19931;-76
2023/12/08 02:36:54;;;;;;;;;;;1.40;99.90;;;;;;5099037;28;19924;-75
2023/12/08 02:39:20;;;;;;;;;;;1.40;99.90;;;;;;5107503;28;19950;-76
2023/12/08 02:41:45;;;;;;;;;;;1.40;99.90;;;;;;5095426;28;20339;-76
2023/12/08 02:44:11;;;;;;;;;;;1.40;99.90;;;;;;5111087;28;20010;-76
2023/12/08 02:46:37;;;;;;;;;;;1.90;99.90;;;;;;5093385;28;19949;-76
2023/12/08 02:49:02;;;;;;;;;;;1.80;99.90;;;;;;5111712;28;19924;-76
2023/12/08 02:51:28;;;;;;;;;;;1.40;99.90;;;;;;5106840;28;19923;-75
2023/12/08 02:53:53;;;;;;;;;;;1.70;99.90;;;;;;5101182;27;19923;-76
2023/12/08 02:56:19;;;;;;;;;;;1.40;99.90;;;;;;5107433;28;20391;-76
2023/12/08 02:58:45;;;;;;;;;;;1.40;99.90;;;;;;5101079;27;19968;-76
2023/12/08 03:01:10;;;;;;;;;;;1.40;99.90;;;;;;5122384;27;19931;-76
2023/12/08 03:03:36;;;;;;;;;;;1.40;99.90;;;;;;5130401;27;20328;-75
2023/12/08 03:06:01;;;;;;;;;;;1.40;99.90;;;;;;5125204;27;20362;-75
2023/12/08 03:08:27;;;;;;;;;;;1.40;99.90;;;;;;5098126;27;20376;-75
2023/12/08 03:10:52;;;;;;;;;;;1.40;99.90;;;;;;5095170;28;20303;-76
2023/12/08 03:13:18;;;;;;;;;;;1.40;99.90;;;;;;5124187;27;20011;-76
2023/12/08 03:15:43;;;;;;;;;;;1.40;99.90;;;;;;5125280;27;20004;-75
2023/12/08 03:18:09;;;;;;;;;;;1.40;99.90;;;;;;5128531;27;19930;-75
2023/12/08 03:20:34;;;;;;;;;;;1.50;99.90;;;;;;5121490;27;19931;-76
2023/12/08 03:23:00;;;;;;;;;;;1.50;99.90;;;;;;5095970;27;19928;-76
2023/12/08 03:25:25;;;;;;;;;;;2.50;99.90;;;;;;5131823;27;20015;-75
2023/12/08 03:27:51;;;;;;;;;;;1.80;99.90;;;;;;5100073;28;19923;-76
2023/12/08 03:30:16;;;;;;;;;;;1.50;99.90;;;;;;5112759;27;19970;-75
2023/12/08 03:32:42;;;;;;;;;;;1.50;99.90;;;;;;5106220;28;20022;-75
2023/12/08 03:35:08;;;;;;;;;;;2.00;99.90;;;;;;5127934;27;19936;-75
2023/12/08 03:37:33;;;;;;;;;;;1.50;99.90;;;;;;5099051;28;19931;-74
2023/12/08 03:39:59;;;;;;;;;;;1.40;99.90;;;;;;5102226;28;19930;-75
2023/12/08 03:42:24;;;;;;;;;;;1.90;99.90;;;;;;5107205;27;19920;-75
2023/12/08 03:44:50;;;;;;;;;;;1.90;99.90;;;;;;5102867;28;20331;-75
2023/12/08 03:47:16;;;;;;;;;;;1.40;99.90;;;;;;5105260;27;20422;-76
2023/12/08 03:49:42;;;;;;;;;;;1.40;99.90;;;;;;5130178;27;19977;-75
2023/12/08 03:52:07;;;;;;;;;;;1.60;99.90;;;;;;5112299;27;19962;-75
2023/12/08 03:54:33;;;;;;;;;;;1.50;99.90;;;;;;5103822;27;19920;-75
2023/12/08 03:56:58;;;;;;;;;;;1.60;99.90;;;;;;5107418;28;19936;-76
2023/12/08 03:59:24;;;;;;;;;;;1.50;99.90;;;;;;5128405;27;20301;-76
2023/12/08 04:01:53;;;;;;;;;;;1.50;99.90;;;;;;5125900;27;19931;-76
2023/12/08 04:04:18;;;;;;;;;;;1.40;99.90;;;;;;5113602;27;19927;-75
2023/12/08 04:06:44;;;;;;;;;;;1.50;99.90;;;;;;5122583;27;21264;-75
2023/12/08 04:09:09;;;;;;;;;;;1.50;99.90;;;;;;5102712;28;20067;-75
2023/12/08 04:11:35;;;;;;;;;;;1.50;99.90;;;;;;5123864;27;19924;-75
2023/12/08 04:14:00;;;;;;;;;;;2.20;99.90;;;;;;5112924;27;19923;-76
2023/12/08 04:16:26;;;;;;;;;;;1.70;99.90;;;;;;5103755;28;19923;-75
2023/12/08 04:18:52;;;;;;;;;;;1.70;99.90;;;;;;5105576;27;20423;-74
2023/12/08 04:21:18;;;;;;;;;;;1.50;99.90;;;;;;5097490;28;20386;-75
2023/12/08 04:23:43;;;;;;;;;;;1.50;99.90;;;;;;5103831;28;19924;-75
2023/12/08 04:26:09;;;;;;;;;;;1.50;99.90;;;;;;5107320;28;19924;-75
2023/12/08 04:28:34;;;;;;;;;;;1.50;99.90;;;;;;5109683;28;19924;-75
2023/12/08 04:31:00;;;;;;;;;;;1.50;99.90;;;;;;5105772;28;19971;-75
2023/12/08 04:33:25;;;;;;;;;;;1.40;99.90;;;;;;5106867;28;19924;-75
2023/12/08 04:35:51;;;;;;;;;;;2.00;99.90;;;;;;5102098;28;19923;-76
2023/12/08 04:38:16;;;;;;;;;;;1.40;99.90;;;;;;5102289;27;20630;-76
2023/12/08 04:40:42;;;;;;;;;;;2.30;99.90;;;;;;5112962;27;20477;-74
2023/12/08 04:43:07;;;;;;;;;;;1.40;99.90;;;;;;5129384;27;19924;-75
2023/12/08 04:45:33;;;;;;;;;;;1.90;99.90;;;;;;5097543;27;20294;-75
2023/12/08 04:47:58;;;;;;;;;;;1.40;99.90;;;;;;5110153;27;19927;-75
2023/12/08 04:50:24;;;;;;;;;;;1.40;99.90;;;;;;5107584;27;19928;-76
2023/12/08 04:52:50;;;;;;;;;;;1.30;99.90;;;;;;5111724;27;19927;-77
2023/12/08 04:55:15;;;;;;;;;;;1.30;99.90;;;;;;5101161;27;20396;-76
2023/12/08 04:57:41;;;;;;;;;;;1.70;99.90;;;;;;5105247;28;20393;-77
2023/12/08 05:00:06;;;;;;;;;;;1.30;99.90;;;;;;5112326;27;19934;-76
2023/12/08 05:02:32;;;;;;;;;;;1.30;99.90;;;;;;5108674;27;20378;-76
2023/12/08 05:04:57;;;;;;;;;;;1.30;99.90;;;;;;5127080;27;19960;-77
2023/12/08 05:07:23;;;;;;;;;;;1.30;99.90;;;;;;5102337;28;19928;-76
2023/12/08 05:09:49;;;;;;;;;;;1.20;99.90;;;;;;5095217;27;19974;-77
2023/12/08 05:12:14;;;;;;;;;;;1.90;99.90;;;;;;5101173;27;20018;-77
2023/12/08 05:14:40;;;;;;;;;;;1.20;99.90;;;;;;5093424;28;20022;-77
2023/12/08 05:17:05;;;;;;;;;;;1.20;99.90;;;;;;5117443;27;19931;-78
2023/12/08 05:19:31;;;;;;;;;;;1.20;99.90;;;;;;5120074;27;19923;-77
2023/12/08 05:21:56;;;;;;;;;;;1.20;99.90;;;;;;5117450;27;19923;-78
2023/12/08 05:24:22;;;;;;;;;;;1.20;99.90;;;;;;5116593;27;20010;-77
2023/12/08 05:26:47;;;;;;;;;;;1.20;99.90;;;;;;5109054;27;19941;-77
2023/12/08 05:29:13;;;;;;;;;;;1.20;99.90;;;;;;5099572;28;19924;-78
2023/12/08 05:31:39;;;;;;;;;;;1.20;99.90;;;;;;5095199;28;19924;-77
2023/12/08 05:34:04;;;;;;;;;;;1.20;99.90;;;;;;5098913;28;19924;-77
2023/12/08 05:36:30;;;;;;;;;;;1.20;99.90;;;;;;5101538;28;20011;-78
2023/12/08 05:38:55;;;;;;;;;;;1.30;99.90;;;;;;5119287;27;19924;-76
2023/12/08 05:41:21;;;;;;;;;;;1.80;99.90;;;;;;5105932;28;19949;-76
2023/12/08 05:43:46;;;;;;;;;;;1.10;99.90;;;;;;5125659;28;19989;-77
2023/12/08 05:46:12;;;;;;;;;;;1.40;99.90;;;;;;5103882;28;20351;-77
2023/12/08 05:48:38;;;;;;;;;;;1.10;99.90;;;;;;5108027;28;19920;-77
2023/12/08 05:51:03;;;;;;;;;;;1.10;99.90;;;;;;5110722;28;20327;-76
2023/12/08 05:53:29;;;;;;;;;;;1.10;99.90;;;;;;5120326;28;19935;-77
2023/12/08 05:55:54;;;;;;;;;;;1.10;99.90;;;;;;5119605;28;19945;-77
2023/12/08 05:58:24;;;;;;;;;;;1.30;99.90;;;;;;5128442;28;19928;-77
2023/12/08 06:00:50;;;;;;;;;;;1.00;99.90;;;;;;5103605;28;19934;-76
2023/12/08 06:03:15;;;;;;;;;;;1.10;99.90;;;;;;5110911;28;20010;-76
2023/12/08 06:05:41;;;;;;;;;;;1.10;99.90;;;;;;5119070;28;20089;-76
2023/12/08 06:08:06;;;;;;;;;;;1.10;99.90;;;;;;5118484;28;19931;-77
2023/12/08 06:10:32;;;;;;;;;;;1.10;99.90;;;;;;5100661;28;19930;-76
2023/12/08 06:12:57;;;;;;;;;;;1.00;99.90;;;;;;5108912;28;19934;-75
2023/12/08 06:15:23;;;;;;;;;;;1.70;99.90;;;;;;5105220;28;19931;-77
2023/12/08 06:17:49;;;;;;;;;;;1.00;99.90;;;;;;5102974;28;19924;-76
2023/12/08 06:20:14;;;;;;;;;;;1.00;99.90;;;;;;5103593;28;20094;-76
2023/12/08 06:22:40;;;;;;;;;;;1.00;99.90;;;;;;5128620;27;19927;-77
2023/12/08 06:25:07;;;;;;;;;;;1.00;99.90;;;;;;5124311;28;19943;-77
2023/12/08 06:27:33;;;;;;;;;;;1.00;99.90;;;;;;5107225;28;19924;-76
2023/12/08 06:29:58;;;;;;;;;;;1.00;99.90;;;;;;5124423;27;20102;-77
2023/12/08 06:32:26;;;;;;;;;;;1.00;99.90;;;;;;5099496;27;20437;-76
2023/12/08 06:34:52;;;;;;;;;;;1.60;99.90;;;;;;5127342;27;19920;-77
2023/12/08 06:37:17;;;;;;;;;;;1.10;99.90;;;;;;5102275;28;19924;-76
2023/12/08 06:39:43;;;;;;;;;;;1.00;99.90;;;;;;5104271;28;19930;-76
2023/12/08 06:42:08;;;;;;;;;;;1.00;99.90;;;;;;5100220;27;19923;-76
2023/12/08 06:44:34;;;;;;;;;;;1.00;99.90;;;;;;5120820;27;19932;-77
2023/12/08 06:46:59;;;;;;;;;;;1.00;99.90;;;;;;5101713;27;19928;-76
2023/12/08 06:49:25;;;;;;;;;;;1.00;99.90;;;;;;5105325;27;20415;-78
2023/12/08 06:51:51;;;;;;;;;;;1.00;99.90;;;;;;5102212;27;19971;-77
2023/12/08 06:54:16;;;;;;;;;;;1.10;99.90;;;;;;5129809;27;19924;-75
2023/12/08 06:56:42;;;;;;;;;;;1.40;99.90;;;;;;5096768;28;20050;-75
2023/12/08 06:59:08;;;;;;;;;;;1.00;99.90;;;;;;5103809;28;19931;-77
2023/12/08 07:01:34;;;;;;;;;;;1.00;99.90;;;;;;5110301;28;19973;-76
2023/12/08 07:04:00;;;;;;;;;;;1.00;99.90;;;;;;5113418;27;19927;-76
2023/12/08 07:06:25;;;;;;;;;;;1.00;99.90;;;;;;5110049;28;20023;-76
2023/12/08 07:08:51;;;;;;;;;;;1.60;99.90;;;;;;5110330;27;19924;-76
2023/12/08 07:11:16;;;;;;;;;;;1.00;99.90;;;;;;5096333;27;20335;-76
2023/12/08 07:13:42;;;;;;;;;;;1.00;99.90;;;;;;5110224;27;19931;-76
2023/12/08 07:16:09;;;;;;;;;;;1.10;99.90;;;;;;5111500;28;19969;-76
2023/12/08 07:18:37;;;;;;;;;;;1.10;99.90;;;;;;5121721;27;20007;-81
2023/12/08 07:21:03;;;;;;;;;;;1.10;99.90;;;;;;5112250;27;19985;-76
2023/12/08 07:23:29;;;;;;;;;;;1.00;99.90;;;;;;5113295;27;20447;-75
2023/12/08 07:25:54;;;;;;;;;;;1.10;99.90;;;;;;5106439;27;20018;-75
2023/12/08 07:28:20;;;;;;;;;;;1.70;99.90;;;;;;5111337;27;19932;-76
2023/12/08 07:30:45;;;;;;;;;;;1.10;99.90;;;;;;5111754;27;20028;-75
2023/12/08 07:33:11;;;;;;;;;;;1.00;99.90;;;;;;5127486;27;19959;-74
2023/12/08 07:35:36;;;;;;;;;;;1.00;99.90;;;;;;5121585;27;20131;-75
2023/12/08 07:38:03;;;;;;;;;;;1.70;99.90;;;;;;5111446;28;19923;-75
2023/12/08 07:40:29;;;;;;;;;;;1.70;99.90;;;;;;5110533;27;19967;-75
2023/12/08 07:42:54;;;;;;;;;;;1.00;99.90;;;;;;5105821;28;20039;-75
2023/12/08 07:45:20;;;;;;;;;;;1.40;99.90;;;;;;5124161;27;19923;-75
2023/12/08 07:47:47;;;;;;;;;;;1.50;99.90;;;;;;5093468;28;20428;-75
2023/12/08 07:50:13;;;;;;;;;;;1.00;99.90;;;;;;5093040;28;19977;-75
2023/12/08 07:52:41;;;;;;;;;;;1.10;99.90;;;;;;5092981;28;19931;-74
2023/12/08 07:55:08;;;;;;;;;;;1.00;99.90;;;;;;5109155;27;19934;-75
2023/12/08 07:57:33;;;;;;;;;;;1.00;99.90;;;;;;5107849;28;19931;-75
2023/12/08 07:59:59;;;;;;;;;;;1.70;99.90;;;;;;5113168;27;20318;-75
2023/12/08 08:02:24;;;;;;;;;;;1.10;99.90;;;;;;5130245;27;19919;-77
2023/12/08 08:04:50;;;;;;;;;;;1.10;99.90;;;;;;5122276;27;20044;-77
2023/12/08 08:07:16;;;;;;;;;;;2.30;99.90;;;;;;5101086;28;19924;-76
2023/12/08 08:09:42;;;;;;;;;;;1.10;99.90;;;;;;5129581;27;19926;-77
2023/12/08 08:12:09;;;;;;;;;;;1.10;99.90;;;;;;5096039;28;19924;-77
2023/12/08 08:14:35;;;;;;;;;;;1.10;99.90;;;;;;5111607;28;20033;-77
2023/12/08 08:17:01;;;;;;;;;;;1.60;99.90;;;;;;5091419;28;20023;-77
2023/12/08 08:19:27;;;;;;;;;;;1.10;99.90;;;;;;5093420;28;20024;-77
2023/12/08 08:21:53;;;;;;;;;;;1.10;99.90;;;;;;5094389;27;20002;-76
2023/12/08 08:24:18;;;;;;;;;;;1.10;99.90;;;;;;5098364;28;20016;-77
2023/12/08 08:26:44;;;;;;;;;;;1.10;99.90;;;;;;5091028;28;19934;-77
2023/12/08 08:29:09;;;;;;;;;;;1.20;99.90;;;;;;5112551;27;20331;-77
2023/12/08 08:31:35;;;;;;;;;;;1.10;99.90;;;;;;5102630;27;19930;-77
2023/12/08 08:34:01;;;;;;;;;;;1.60;99.90;;;;;;5110894;27;20385;-78
2023/12/08 08:36:26;;;;;;;;;;;1.90;99.90;;;;;;5094380;28;19977;-78
2023/12/08 08:38:52;;;;;;;;;;;1.20;99.90;;;;;;5104785;28;19923;-81
2023/12/08 08:41:18;;;;;;;;;;;1.20;99.90;;;;;;5104612;28;19969;-75
2023/12/08 08:43:43;;;;;;;;;;;1.20;99.90;;;;;;5118791;27;19930;-75
2023/12/08 08:46:09;;;;;;;;;;;1.20;99.90;;;;;;5095219;28;19930;-76
2023/12/08 08:48:34;;;;;;;;;;;1.20;99.90;;;;;;5092904;28;19923;-77
2023/12/08 08:51:00;;;;;;;;;;;1.50;99.90;;;;;;5111762;27;19927;-77
2023/12/08 08:53:27;;;;;;;;;;;1.20;99.90;;;;;;5110254;28;19924;-76
2023/12/08 08:55:53;;;;;;;;;;;1.30;99.90;;;;;;5107406;27;20350;-76
2023/12/08 08:58:18;;;;;;;;;;;1.20;99.90;;;;;;5112688;27;19962;-77
2023/12/08 09:00:45;;;;;;;;;;;1.20;99.90;;;;;;5129162;27;19935;-77
2023/12/08 09:03:10;;;;;;;;;;;1.30;99.90;;;;;;5131166;27;19937;-76
2023/12/08 09:05:40;;;;;;;;;;;2.50;99.90;;;;;;5126048;27;19927;-76
2023/12/08 09:08:06;;;;;;;;;;;1.30;99.90;;;;;;5106302;28;20379;-76
2023/12/08 09:10:32;;;;;;;;;;;1.30;99.90;;;;;;5109239;28;20012;-77
2023/12/08 09:12:58;;;;;;;;;;;1.30;99.90;;;;;;5125461;27;19997;-77
2023/12/08 09:15:23;;;;;;;;;;;1.30;99.90;;;;;;5096219;27;19927;-76
2023/12/08 09:17:49;;;;;;;;;;;1.40;99.90;;;;;;5108217;28;19931;-77
2023/12/08 09:20:16;;;;;;;;;;;1.40;99.90;;;;;;5108585;28;20130;-76
2023/12/08 09:22:42;;;;;;;;;;;1.40;99.90;;;;;;5106841;28;19927;-77
2023/12/08 09:25:07;;;;;;;;;;;1.40;99.90;;;;;;5130351;27;20290;-76
2023/12/08 09:27:33;;;;;;;;;;;1.40;99.90;;;;;;5105052;28;20381;-77
2023/12/08 09:29:59;;;;;;;;;;;1.40;99.90;;;;;;5109524;28;20018;-76
2023/12/08 09:32:24;;;;;;;;;;;1.40;99.90;;;;;;5108842;28;19928;-77
2023/12/08 09:34:50;;;;;;;;;;;1.40;99.90;;;;;;5107359;28;20347;-77
2023/12/08 09:37:15;;;;;;;;;;;1.60;99.90;;;;;;5110291;28;20014;-76
2023/12/08 09:39:41;;;;;;;;;;;1.50;99.90;;;;;;5108847;28;20391;-76
2023/12/08 09:42:08;;;;;;;;;;;2.10;99.90;;;;;;5100734;28;19927;-76
2023/12/08 09:44:33;;;;;;;;;;;1.50;99.90;;;;;;5106244;28;19924;-76
2023/12/08 09:47:02;;;;;;;;;;;1.50;99.90;;;;;;5107886;28;19932;-76
2023/12/08 09:49:28;;;;;;;;;;;1.50;99.90;;;;;;5109450;28;19984;-75
2023/12/08 09:51:55;;;;;;;;;;;1.60;99.90;;;;;;5109350;28;19939;-76
2023/12/08 09:54:21;;;;;;;;;;;1.60;99.90;;;;;;5111793;28;20457;-76
2023/12/08 09:56:50;;;;;;;;;;;1.60;99.90;;;;;;5103529;28;20049;-75
2023/12/08 09:59:17;;;;;;;;;;;1.90;99.90;;;;;;5110478;28;20304;-75
2023/12/08 10:01:44;;;;;;;;;;;2.10;99.90;;;;;;5108839;28;20378;-77
2023/12/08 10:04:10;;;;;;;;;;;1.60;99.90;;;;;;5110869;27;20017;-80
2023/12/08 10:06:36;;;;;;;;;;;1.60;99.90;;;;;;5094337;28;19966;-86
2023/12/08 10:09:03;;;;;;;;;;;2.10;99.90;;;;;;5095662;28;19959;-85
2023/12/08 10:11:29;;;;;;;;;;;1.60;99.90;;;;;;5093284;28;19924;-85
2023/12/08 10:13:56;;;;;;;;;;;1.60;99.90;;;;;;5096091;28;19978;-89
2023/12/08 10:16:22;;;;;;;;;;;2.00;99.90;;;;;;5095852;28;19927;-82
2023/12/08 10:18:48;;;;;;;;;;;1.70;99.90;;;;;;5095931;28;19934;-87
2023/12/08 10:21:19;;;;;;;;;;;1.70;99.90;;;;;;5128559;27;20398;-82
2023/12/08 10:23:45;;;;;;;;;;;1.70;99.90;;;;;;5111198;27;20022;-88
2023/12/08 10:26:15;;;;;;;;;;;1.70;99.90;;;;;;5133029;27;19930;-89
2023/12/08 10:28:42;;;;;;;;;;;1.70;99.90;;;;;;5134520;27;20318;-89
2023/12/08 10:31:08;;;;;;;;;;;1.70;99.90;;;;;;5110733;28;19923;-89
2023/12/08 10:33:34;;;;;;;;;;;2.10;99.90;;;;;;5111410;28;19973;-86
2023/12/08 10:35:59;;;;;;;;;;;1.70;99.90;;;;;;5110353;28;19928;-84
2023/12/08 10:38:25;;;;;;;;;;;1.80;99.90;;;;;;5109480;28;20429;-87
2023/12/08 10:40:52;;;;;;;;;;;1.80;99.90;;;;;;5101787;28;19930;-83
2023/12/08 10:43:22;;;;;;;;;;;2.00;99.90;;;;;;5099193;28;19966;-86
2023/12/08 10:45:57;;;;;;;;;;;1.80;99.90;;;;;;5100258;27;19932;-84
2023/12/08 10:48:23;;;;;;;;;;;1.80;99.90;;;;;;5133596;27;19928;-85
2023/12/08 10:50:50;;;;;;;;;;;2.50;99.90;;;;;;5130345;27;19931;-84
2023/12/08 10:53:20;;;;;;;;;;;1.80;99.90;;;;;;5114314;27;19924;-83
2023/12/08 10:55:56;;;;;;;;;;;1.80;99.90;;;;;;5110170;28;20458;-85
2023/12/08 10:58:22;;;;;;;;;;;1.90;99.90;;;;;;5109784;27;19977;-86
2023/12/08 11:00:53;;;;;;;;;;;1.90;99.90;;;;;;5102047;27;19932;-87
2023/12/08 11:03:24;;;;;;;;;;;1.90;99.90;;;;;;5100209;27;19955;-83
2023/12/08 11:06:10;;;;;;;;;;;1.90;99.90;;;;;;5102106;28;19939;-84
2023/12/08 11:08:39;;;;;;;;;;;1.90;99.90;;;;;;5108261;27;19931;-85
2023/12/08 11:11:06;;;;;;;;;;;1.90;99.90;;;;;;5108937;28;19938;-86
2023/12/08 11:13:36;;;;;;;;;;;1.90;99.90;;;;;;5109659;28;20385;-85
2023/12/08 11:16:13;;;;;;;;;;;1.90;99.90;;;;;;5110458;28;20002;-86
2023/12/08 11:18:40;;;;;;;;;;;1.90;99.90;;;;;;5112471;27;20207;-85
2023/12/08 11:21:07;;;;;;;;;;;1.90;99.90;;;;;;5095343;28;19976;-84
2023/12/08 11:23:33;;;;;;;;;;;2.00;99.90;;;;;;5101356;27;19965;-84
2023/12/08 11:26:14;;;;;;;;;;;2.60;99.90;;;;;;5094271;28;19924;-75
2023/12/08 11:28:46;;;;;;;;;;;2.00;99.90;;;;;;5091985;28;19927;-75
2023/12/08 11:31:22;;;;;;;;;;;2.00;99.90;;;;;;5110784;28;19931;-75
2023/12/08 11:33:59;;;;;;;;;;;2.00;99.90;;;;;;5111610;28;19928;-74
2023/12/08 11:36:25;;;;;;;;;;;2.00;99.90;;;;;;5101222;28;20022;-75
2023/12/08 11:38:51;;;;;;;;;;;2.00;99.90;;;;;;5092494;28;20022;-75
2023/12/08 11:41:18;;;;;;;;;;;2.00;99.90;;;;;;5115214;27;19931;-76
2023/12/08 11:43:46;;;;;;;;;;;2.00;99.90;;;;;;5093598;28;19923;-74
2023/12/08 11:46:15;;;;;;;;;;;2.00;99.90;;;;;;5093672;28;19997;-77
2023/12/08 11:48:41;;;;;;;;;;;2.00;99.90;;;;;;5101091;27;19923;-74
2023/12/08 11:51:07;;;;;;;;;;;2.10;99.90;;;;;;5118340;27;20325;-76
2023/12/08 11:53:48;;;;;;;;;;;2.10;99.90;;;;;;5102976;28;19923;-75
2023/12/08 11:56:48;;;;;;;;;;;2.10;99.90;;;;;;5106368;28;19962;-74
2023/12/08 11:59:21;;;;;;;;;;;2.10;99.90;;;;;;5057720;28;19928;-74
2023/12/08 12:01:47;;;;;;;;;;;2.20;99.90;;;;;;5094544;27;20397;-74
2023/12/08 12:04:13;;;;;;;;;;;2.10;99.90;;;;;;5113383;27;19927;-75
2023/12/08 12:06:40;;;;;;;;;;;2.20;99.90;;;;;;5113361;27;20295;-73
2023/12/08 12:09:06;;;;;;;;;;;2.10;99.90;;;;;;5103565;27;19924;-74
2023/12/08 12:11:32;;;;;;;;;;;2.10;99.90;;;;;;5091762;27;20100;-75
2023/12/08 12:13:59;;;;;;;;;;;2.10;99.90;;;;;;5112385;27;20643;-74
2023/12/08 12:16:25;;;;;;;;;;;2.30;99.90;;;;;;5091355;28;19924;-75
2023/12/08 12:18:51;;;;;;;;;;;2.10;99.90;;;;;;5098828;28;20011;-74
2023/12/08 12:21:18;;;;;;;;;;;2.10;99.90;;;;;;5093134;27;20026;-75
2023/12/08 12:23:46;;;;;;;;;;;2.10;99.90;;;;;;5091720;28;19931;-78
2023/12/08 12:26:13;;;;;;;;;;;2.30;99.90;;;;;;5104525;27;19919;-77
2023/12/08 12:28:39;;;;;;;;;;;2.10;99.90;;;;;;5091958;28;20002;-77
2023/12/08 12:31:04;;;;;;;;;;;2.10;99.90;;;;;;5091479;28;19946;-78
2023/12/08 12:33:30;;;;;;;;;;;2.10;99.90;;;;;;5094299;28;19966;-77
2023/12/08 12:35:55;;;;;;;;;;;2.10;99.90;;;;;;5100368;28;19930;-78
2023/12/08 12:38:21;;;;;;;;;;;2.10;99.90;;;;;;5105582;28;19972;-78
2023/12/08 12:40:46;;;;;;;;;;;2.10;99.90;;;;;;5105583;28;19928;-77
2023/12/08 12:43:15;;;;;;;;;;;2.10;99.90;;;;;;5103618;27;19928;-79
2023/12/08 12:45:42;;;;;;;;;;;2.10;99.90;;;;;;5109133;28;20275;-78
2023/12/08 12:48:08;;;;;;;;;;;2.40;99.90;;;;;;5099795;28;19931;-78
2023/12/08 12:50:47;;;;;;;;;;;2.60;99.90;;;;;;5106958;28;20299;-78
2023/12/08 12:53:14;;;;;;;;;;;2.10;99.90;;;;;;5099874;28;19947;-78
2023/12/08 12:55:39;;;;;;;;;;;2.10;99.90;;;;;;5098343;28;19928;-77
2023/12/08 12:58:05;;;;;;;;;;;2.10;99.90;;;;;;5123802;27;19923;-78
2023/12/08 13:00:39;;;;;;;;;;;2.10;99.90;;;;;;5106048;28;20022;-76
2023/12/08 13:03:12;;;;;;;;;;;2.10;99.90;;;;;;5092622;28;19928;-78
2023/12/08 13:05:43;;;;;;;;;;;2.20;99.90;;;;;;5091031;28;19975;-78
2023/12/08 13:08:09;;;;;;;;;;;2.20;99.90;;;;;;5093412;28;19924;-79
2023/12/08 13:10:35;;;;;;;;;;;2.20;99.90;;;;;;5108343;27;19923;-77
2023/12/08 13:13:00;;;;;;;;;;;2.20;99.90;;;;;;5105604;28;19932;-78
2023/12/08 13:15:26;;;;;;;;;;;2.20;99.90;;;;;;5111084;27;19971;-77
2023/12/08 13:17:51;;;;;;;;;;;2.20;99.90;;;;;;5111329;27;19924;-77
2023/12/08 13:20:18;;;;;;;;;;;2.40;99.90;;;;;;5091250;28;19928;-78
2023/12/08 13:22:43;;;;;;;;;;;2.20;99.90;;;;;;5105610;28;19948;-75
2023/12/08 13:25:12;;;;;;;;;;;2.20;99.90;;;;;;5109554;28;20018;-77
2023/12/08 13:27:37;;;;;;;;;;;2.20;99.90;;;;;;5106121;27;19927;-77
2023/12/08 13:30:03;;;;;;;;;;;2.90;99.90;;;;;;5094053;28;20018;-79
2023/12/08 13:32:29;;;;;;;;;;;2.20;99.90;;;;;;5103419;28;19971;-77
2023/12/08 13:34:54;;;;;;;;;;;2.20;99.90;;;;;;5108108;28;19924;-77
2023/12/08 13:37:20;;;;;;;;;;;2.30;99.90;;;;;;5106783;28;19930;-75
2023/12/08 13:39:46;;;;;;;;;;;2.90;99.90;;;;;;5125604;27;19982;-74
2023/12/08 13:42:11;;;;;;;;;;;2.20;99.90;;;;;;5126239;28;20421;-74
2023/12/08 13:44:37;;;;;;;;;;;3.00;99.90;;;;;;5112185;28;19923;-72
2023/12/08 13:47:03;;;;;;;;;;;2.40;99.90;;;;;;5129770;28;19924;-76
2023/12/08 13:49:28;;;;;;;;;;;2.20;99.90;;;;;;5101846;28;20443;-74
2023/12/08 13:51:54;;;;;;;;;;;2.30;99.90;;;;;;5094333;28;19960;-73
2023/12/08 13:54:19;;;;;;;;;;;2.20;99.90;;;;;;5111760;28;19927;-74
2023/12/08 13:56:45;;;;;;;;;;;2.20;99.90;;;;;;5102444;28;19928;-73
2023/12/08 13:59:11;;;;;;;;;;;2.20;99.90;;;;;;5100039;28;20371;-74
2023/12/08 14:01:36;;;;;;;;;;;2.20;99.90;;;;;;5110786;28;19923;-73
2023/12/08 14:04:02;;;;;;;;;;;2.10;99.90;;;;;;5106782;28;19930;-74
2023/12/08 14:06:28;;;;;;;;;;;2.20;99.90;;;;;;5099211;28;20149;-73
2023/12/08 14:08:53;;;;;;;;;;;2.40;99.90;;;;;;5124786;28;19924;-74
2023/12/08 14:11:19;;;;;;;;;;;2.20;99.90;;;;;;5127069;28;19928;-74
2023/12/08 14:13:45;;;;;;;;;;;2.20;99.90;;;;;;5110271;28;19923;-74
2023/12/08 14:16:10;;;;;;;;;;;2.20;99.90;;;;;;5109879;28;20319;-74
2023/12/08 14:18:36;;;;;;;;;;;2.20;99.90;;;;;;5106780;28;19931;-74
2023/12/08 14:21:01;;;;;;;;;;;3.10;99.90;;;;;;5094490;28;20283;-74
2023/12/08 14:23:27;;;;;;;;;;;2.20;99.90;;;;;;5107783;28;20272;-73
2023/12/08 14:25:52;;;;;;;;;;;2.20;99.90;;;;;;5107628;28;20020;-74